createdAt,value
2023-03-25T00:00:29.378Z,2.70
2023-03-25T00:01:29.357Z,2.70
2023-03-25T00:02:29.433Z,3.90
2023-03-25T00:03:29.322Z,7.10
2023-03-25T00:04:29.315Z,4.80
2023-03-25T00:05:29.254Z,4.40
2023-03-25T00:06:29.224Z,3.00
2023-03-25T00:07:29.201Z,6.20
2023-03-25T00:08:29.174Z,2.40
2023-03-25T00:09:29.148Z,3.30
2023-03-25T00:10:29.120Z,3.60
2023-03-25T00:11:29.094Z,3.20
2023-03-25T00:12:29.141Z,3.70
2023-03-25T00:13:29.051Z,4.10
2023-03-25T00:14:29.017Z,3.40
2023-03-25T00:15:28.992Z,2.90
2023-03-25T00:16:29.018Z,3.10
2023-03-25T00:17:29.036Z,1.90
2023-03-25T00:18:28.916Z,4.90
2023-03-25T00:19:28.909Z,3.40
2023-03-25T00:20:28.872Z,3.30
2023-03-25T00:21:28.837Z,3.90
2023-03-25T00:22:28.828Z,3.70
2023-03-25T00:23:28.790Z,6.10
2023-03-25T00:24:28.760Z,4.30
2023-03-25T00:25:28.749Z,2.90
2023-03-25T00:26:28.712Z,2.10
2023-03-25T00:27:28.682Z,3.80
2023-03-25T00:28:28.654Z,2.40
2023-03-25T00:29:28.630Z,2.70
2023-03-25T00:30:28.609Z,3.80
2023-03-25T00:31:28.576Z,2.90
2023-03-25T00:32:28.573Z,3.20
2023-03-25T00:33:28.539Z,3.90
2023-03-25T00:34:28.499Z,6.50
2023-03-25T00:35:28.495Z,3.90
2023-03-25T00:36:28.445Z,4.00
2023-03-25T00:37:28.432Z,5.30
2023-03-25T00:38:28.403Z,4.30
2023-03-25T00:39:28.371Z,3.60
2023-03-25T00:40:28.437Z,3.70
2023-03-25T00:41:28.319Z,4.30
2023-03-25T00:42:28.290Z,6.10
2023-03-25T00:43:28.265Z,4.60
2023-03-25T00:44:28.239Z,5.00
2023-03-25T00:45:28.220Z,3.10
2023-03-25T00:46:28.251Z,3.40
2023-03-25T00:47:28.185Z,4.40
2023-03-25T00:48:28.134Z,4.60
2023-03-25T00:49:28.111Z,3.00
2023-03-25T00:50:28.082Z,6.80
2023-03-25T00:51:28.107Z,4.90
2023-03-25T00:52:28.036Z,3.90
2023-03-25T00:53:28.009Z,6.30
2023-03-25T00:54:27.985Z,5.50
2023-03-25T00:55:27.961Z,5.20
2023-03-25T00:56:27.956Z,7.60
2023-03-25T00:57:27.909Z,5.90
2023-03-25T00:58:27.875Z,3.70
2023-03-25T00:59:27.857Z,5.30
2023-03-25T01:00:27.830Z,3.90
2023-03-25T01:01:27.860Z,5.70
2023-03-25T01:02:27.860Z,4.20
2023-03-25T01:03:27.827Z,5.80
2023-03-25T01:04:27.720Z,4.50
2023-03-25T01:05:27.703Z,3.40
2023-03-25T01:06:27.674Z,4.10
2023-03-25T01:07:27.668Z,3.40
2023-03-25T01:08:27.625Z,4.40
2023-03-25T01:09:27.601Z,4.30
2023-03-25T01:10:27.569Z,4.90
2023-03-25T01:11:27.547Z,6.20
2023-03-25T01:12:27.521Z,3.70
2023-03-25T01:13:27.493Z,8.50
2023-03-25T01:14:27.473Z,8.10
2023-03-25T01:15:27.446Z,6.50
2023-03-25T01:16:27.473Z,5.90
2023-03-25T01:17:27.394Z,4.40
2023-03-25T01:18:27.362Z,7.80
2023-03-25T01:19:27.344Z,7.50
2023-03-25T01:20:27.314Z,6.90
2023-03-25T01:21:27.285Z,5.00
2023-03-25T01:22:27.259Z,7.50
2023-03-25T01:23:27.250Z,4.50
2023-03-25T01:24:27.209Z,6.50
2023-03-25T01:25:27.187Z,5.80
2023-03-25T01:26:27.161Z,6.10
2023-03-25T01:27:27.136Z,8.40
2023-03-25T01:28:27.105Z,5.90
2023-03-25T01:29:27.090Z,8.60
2023-03-25T01:30:27.053Z,6.30
2023-03-25T01:31:27.110Z,4.50
2023-03-25T01:32:27.013Z,5.60
2023-03-25T01:33:26.974Z,4.90
2023-03-25T01:34:26.959Z,4.90
2023-03-25T01:35:26.923Z,6.40
2023-03-25T01:36:26.897Z,7.10
2023-03-25T01:37:26.874Z,4.40
2023-03-25T01:38:26.847Z,3.80
2023-03-25T01:39:26.840Z,6.70
2023-03-25T01:40:26.792Z,6.70
2023-03-25T01:41:35.732Z,5.60
2023-03-25T01:42:26.746Z,5.40
2023-03-25T01:43:26.719Z,4.70
2023-03-25T01:44:26.691Z,7.00
2023-03-25T01:45:26.671Z,4.00
2023-03-25T01:46:26.696Z,6.40
2023-03-25T01:47:26.695Z,5.60
2023-03-25T01:48:26.586Z,7.00
2023-03-25T01:49:26.563Z,6.90
2023-03-25T01:50:26.544Z,6.80
2023-03-25T01:51:26.510Z,6.60
2023-03-25T01:52:26.493Z,8.40
2023-03-25T01:53:26.484Z,6.70
2023-03-25T01:54:26.431Z,7.80
2023-03-25T01:55:26.429Z,5.40
2023-03-25T01:56:26.381Z,6.50
2023-03-25T01:57:26.357Z,6.00
2023-03-25T01:58:26.333Z,7.10
2023-03-25T01:59:26.308Z,6.00
2023-03-25T02:00:26.276Z,7.70
2023-03-25T02:01:26.257Z,7.00
2023-03-25T02:02:26.251Z,5.10
2023-03-25T02:03:26.258Z,7.60
2023-03-25T02:04:26.176Z,4.60
2023-03-25T02:05:26.154Z,7.10
2023-03-25T02:06:26.126Z,7.60
2023-03-25T02:07:26.101Z,6.20
2023-03-25T02:08:26.084Z,5.10
2023-03-25T02:09:26.048Z,8.60
2023-03-25T02:10:26.020Z,6.30
2023-03-25T02:11:26.015Z,4.50
2023-03-25T02:12:25.975Z,9.80
2023-03-25T02:13:25.945Z,4.40
2023-03-25T02:14:25.927Z,4.00
2023-03-25T02:15:25.895Z,4.50
2023-03-25T02:16:25.902Z,5.90
2023-03-25T02:17:25.894Z,9.60
2023-03-25T02:18:25.817Z,9.40
2023-03-25T02:19:25.791Z,3.50
2023-03-25T02:20:25.827Z,9.00
2023-03-25T02:21:25.753Z,5.10
2023-03-25T02:22:25.724Z,7.20
2023-03-25T02:23:25.693Z,8.50
2023-03-25T02:24:25.658Z,5.30
2023-03-25T02:25:25.644Z,4.60
2023-03-25T02:26:25.608Z,7.20
2023-03-25T02:27:25.622Z,6.60
2023-03-25T02:28:25.561Z,5.80
2023-03-25T02:29:25.531Z,5.90
2023-03-25T02:30:25.511Z,5.60
2023-03-25T02:31:25.614Z,6.50
2023-03-25T02:32:25.457Z,8.00
2023-03-25T02:33:25.426Z,6.80
2023-03-25T02:34:25.399Z,11.10
2023-03-25T02:35:25.411Z,6.40
2023-03-25T02:36:25.351Z,9.20
2023-03-25T02:37:25.325Z,6.30
2023-03-25T02:38:25.298Z,4.90
2023-03-25T02:39:25.272Z,5.40
2023-03-25T02:40:25.242Z,6.60
2023-03-25T02:41:25.224Z,6.00
2023-03-25T02:42:25.194Z,4.80
2023-03-25T02:43:25.192Z,5.10
2023-03-25T02:44:25.149Z,6.30
2023-03-25T02:45:25.117Z,8.40
2023-03-25T02:46:25.117Z,7.70
2023-03-25T02:47:25.098Z,3.80
2023-03-25T02:48:25.038Z,5.40
2023-03-25T02:49:25.033Z,4.30
2023-03-25T02:50:24.987Z,7.00
2023-03-25T02:51:24.964Z,4.70
2023-03-25T02:52:24.937Z,7.70
2023-03-25T02:53:24.911Z,8.30
2023-03-25T02:54:24.886Z,5.60
2023-03-25T02:55:24.858Z,8.20
2023-03-25T02:56:24.833Z,8.20
2023-03-25T02:57:24.808Z,9.80
2023-03-25T02:58:24.780Z,5.70
2023-03-25T02:59:24.778Z,4.50
2023-03-25T03:00:24.732Z,5.70
2023-03-25T03:01:24.784Z,5.90
2023-03-25T03:02:24.784Z,4.80
2023-03-25T03:03:24.691Z,4.70
2023-03-25T03:04:24.629Z,5.10
2023-03-25T03:05:24.606Z,5.80
2023-03-25T03:06:24.575Z,4.30
2023-03-25T03:07:24.555Z,6.10
2023-03-25T03:08:24.540Z,3.90
2023-03-25T03:09:24.498Z,4.40
2023-03-25T03:10:24.475Z,8.00
2023-03-25T03:11:24.452Z,4.60
2023-03-25T03:12:24.422Z,6.10
2023-03-25T03:13:24.395Z,3.80
2023-03-25T03:14:24.371Z,6.20
2023-03-25T03:15:24.361Z,7.50
2023-03-25T03:16:24.350Z,5.40
2023-03-25T03:17:24.325Z,4.40
2023-03-25T03:18:24.357Z,5.00
2023-03-25T03:19:24.353Z,4.10
2023-03-25T03:20:24.213Z,4.50
2023-03-25T03:21:24.194Z,4.70
2023-03-25T03:22:24.162Z,3.20
2023-03-25T03:23:24.154Z,3.30
2023-03-25T03:24:24.116Z,4.70
2023-03-25T03:25:24.110Z,6.20
2023-03-25T03:26:24.063Z,5.00
2023-03-25T03:27:24.046Z,3.50
2023-03-25T03:28:24.009Z,6.40
2023-03-25T03:29:23.984Z,4.80
2023-03-25T03:30:23.958Z,5.50
2023-03-25T03:31:48.292Z,6.10
2023-03-25T03:32:23.989Z,5.50
2023-03-25T03:33:23.885Z,5.40
2023-03-25T03:34:23.856Z,6.50
2023-03-25T03:35:23.862Z,6.50
2023-03-25T03:36:23.807Z,5.20
2023-03-25T03:37:23.799Z,7.40
2023-03-25T03:38:23.754Z,6.50
2023-03-25T03:39:23.768Z,5.20
2023-03-25T03:40:23.803Z,3.10
2023-03-25T03:41:23.730Z,5.00
2023-03-25T03:42:23.667Z,4.70
2023-03-25T03:43:23.621Z,7.20
2023-03-25T03:44:23.598Z,3.40
2023-03-25T03:45:23.574Z,7.20
2023-03-25T03:46:23.608Z,4.40
2023-03-25T03:47:23.543Z,5.90
2023-03-25T03:48:23.498Z,6.80
2023-03-25T03:49:23.471Z,4.70
2023-03-25T03:50:23.447Z,4.30
2023-03-25T03:51:23.417Z,5.00
2023-03-25T03:52:23.391Z,6.00
2023-03-25T03:53:23.371Z,5.40
2023-03-25T03:54:23.340Z,4.70
2023-03-25T03:55:23.310Z,5.00
2023-03-25T03:56:23.286Z,4.60
2023-03-25T03:57:23.259Z,4.20
2023-03-25T03:58:23.235Z,3.30
2023-03-25T03:59:23.214Z,7.00
2023-03-25T04:00:23.184Z,5.60
2023-03-25T04:01:23.153Z,5.30
2023-03-25T04:02:23.144Z,3.90
2023-03-25T04:03:23.235Z,4.50
2023-03-25T04:04:23.076Z,4.00
2023-03-25T04:05:23.062Z,3.30
2023-03-25T04:06:23.026Z,3.00
2023-03-25T04:07:23.004Z,7.00
2023-03-25T04:08:22.979Z,4.00
2023-03-25T04:09:22.949Z,4.90
2023-03-25T04:10:22.935Z,3.30
2023-03-25T04:11:22.906Z,7.40
2023-03-25T04:12:22.870Z,5.40
2023-03-25T04:13:22.847Z,4.50
2023-03-25T04:14:22.820Z,3.70
2023-03-25T04:15:22.790Z,5.50
2023-03-25T04:16:22.791Z,5.70
2023-03-25T04:17:22.742Z,5.50
2023-03-25T04:18:22.715Z,5.20
2023-03-25T04:19:22.711Z,4.20
2023-03-25T04:20:22.668Z,3.50
2023-03-25T04:21:22.638Z,5.90
2023-03-25T04:22:22.617Z,5.70
2023-03-25T04:23:22.592Z,3.70
2023-03-25T04:24:22.561Z,3.80
2023-03-25T04:25:22.537Z,3.80
2023-03-25T04:26:22.517Z,6.20
2023-03-25T04:27:22.480Z,5.00
2023-03-25T04:28:22.457Z,5.40
2023-03-25T04:29:22.428Z,3.30
2023-03-25T04:30:22.416Z,4.70
2023-03-25T04:31:22.404Z,6.00
2023-03-25T04:32:22.437Z,4.90
2023-03-25T04:33:22.332Z,5.70
2023-03-25T04:34:22.301Z,4.40
2023-03-25T04:35:22.302Z,4.50
2023-03-25T04:36:22.260Z,4.80
2023-03-25T04:37:22.227Z,7.80
2023-03-25T04:38:22.200Z,6.70
2023-03-25T04:39:22.170Z,6.60
2023-03-25T04:40:22.146Z,5.20
2023-03-25T04:41:22.152Z,3.80
2023-03-25T04:42:22.092Z,5.30
2023-03-25T04:43:22.064Z,6.70
2023-03-25T04:44:22.043Z,3.50
2023-03-25T04:45:22.027Z,5.00
2023-03-25T04:46:22.034Z,5.00
2023-03-25T04:47:22.041Z,5.80
2023-03-25T04:48:21.937Z,4.20
2023-03-25T04:49:21.962Z,5.80
2023-03-25T04:50:21.885Z,4.50
2023-03-25T04:51:21.875Z,5.10
2023-03-25T04:52:21.833Z,5.20
2023-03-25T04:53:21.806Z,6.00
2023-03-25T04:54:21.787Z,4.70
2023-03-25T04:55:21.755Z,3.90
2023-03-25T04:56:21.728Z,4.80
2023-03-25T04:57:21.700Z,3.50
2023-03-25T04:58:21.681Z,5.00
2023-03-25T04:59:21.653Z,5.50
2023-03-25T05:00:21.624Z,7.70
2023-03-25T05:01:21.626Z,6.30
2023-03-25T05:02:21.567Z,5.10
2023-03-25T05:03:21.546Z,7.90
2023-03-25T05:04:21.649Z,6.10
2023-03-25T05:05:21.491Z,6.70
2023-03-25T05:06:21.468Z,3.50
2023-03-25T05:07:21.452Z,9.10
2023-03-25T05:08:21.433Z,5.20
2023-03-25T05:09:21.387Z,9.60
2023-03-25T05:10:21.359Z,5.10
2023-03-25T05:11:21.331Z,3.90
2023-03-25T05:12:21.306Z,3.40
2023-03-25T05:13:21.277Z,7.00
2023-03-25T05:14:21.287Z,4.30
2023-03-25T05:15:21.230Z,7.00
2023-03-25T05:16:21.216Z,5.20
2023-03-25T05:17:21.260Z,6.20
2023-03-25T05:18:21.149Z,4.40
2023-03-25T05:19:21.124Z,4.00
2023-03-25T05:20:21.099Z,4.80
2023-03-25T05:21:21.091Z,6.80
2023-03-25T05:22:21.043Z,6.20
2023-03-25T05:23:21.042Z,4.30
2023-03-25T05:24:20.995Z,5.60
2023-03-25T05:25:20.964Z,4.30
2023-03-25T05:26:20.989Z,4.10
2023-03-25T05:27:20.915Z,5.00
2023-03-25T05:28:20.894Z,9.10
2023-03-25T05:29:20.857Z,8.40
2023-03-25T05:30:20.831Z,6.10
2023-03-25T05:31:20.836Z,6.30
2023-03-25T05:32:20.780Z,5.20
2023-03-25T05:33:20.757Z,3.70
2023-03-25T05:34:20.767Z,4.00
2023-03-25T05:35:20.724Z,4.10
2023-03-25T05:36:20.674Z,7.20
2023-03-25T05:37:20.654Z,4.50
2023-03-25T05:38:20.624Z,4.80
2023-03-25T05:39:20.624Z,4.50
2023-03-25T05:40:20.574Z,5.40
2023-03-25T05:41:20.542Z,3.70
2023-03-25T05:42:20.518Z,5.80
2023-03-25T05:43:20.497Z,7.70
2023-03-25T05:44:20.474Z,6.00
2023-03-25T05:45:20.440Z,9.60
2023-03-25T05:46:20.489Z,7.90
2023-03-25T05:47:20.382Z,4.80
2023-03-25T05:48:20.359Z,7.00
2023-03-25T05:49:20.329Z,6.10
2023-03-25T05:50:20.314Z,6.80
2023-03-25T05:51:20.280Z,7.00
2023-03-25T05:52:20.261Z,6.80
2023-03-25T05:53:20.229Z,7.20
2023-03-25T05:54:20.206Z,6.50
2023-03-25T05:55:20.816Z,8.30
2023-03-25T05:56:20.159Z,6.60
2023-03-25T05:57:20.126Z,5.50
2023-03-25T05:58:20.097Z,5.40
2023-03-25T05:59:20.073Z,8.30
2023-03-25T06:00:20.056Z,8.20
2023-03-25T06:01:31.885Z,9.20
2023-03-25T06:02:20.110Z,6.40
2023-03-25T06:03:20.061Z,6.20
2023-03-25T06:04:19.970Z,5.90
2023-03-25T06:05:19.916Z,6.20
2023-03-25T06:06:19.893Z,4.50
2023-03-25T06:07:19.914Z,4.70
2023-03-25T06:08:19.836Z,7.00
2023-03-25T06:09:19.813Z,4.10
2023-03-25T06:10:19.787Z,9.80
2023-03-25T06:11:19.780Z,5.30
2023-03-25T06:12:19.770Z,5.60
2023-03-25T06:13:19.709Z,5.50
2023-03-25T06:14:19.682Z,5.00
2023-03-25T06:15:19.653Z,7.50
2023-03-25T06:16:19.669Z,4.20
2023-03-25T06:17:19.600Z,7.70
2023-03-25T06:18:19.574Z,6.30
2023-03-25T06:19:19.547Z,4.10
2023-03-25T06:20:19.553Z,7.00
2023-03-25T06:21:19.514Z,5.80
2023-03-25T06:22:19.475Z,5.90
2023-03-25T06:23:20.278Z,5.10
2023-03-25T06:24:19.426Z,5.40
2023-03-25T06:25:19.400Z,7.10
2023-03-25T06:26:19.373Z,5.20
2023-03-25T06:27:19.359Z,5.10
2023-03-25T06:28:19.318Z,3.40
2023-03-25T06:29:19.289Z,6.90
2023-03-25T06:30:19.262Z,5.00
2023-03-25T06:31:19.288Z,7.20
2023-03-25T06:32:19.225Z,3.80
2023-03-25T06:33:42.770Z,5.80
2023-03-25T06:34:19.164Z,5.60
2023-03-25T06:35:19.130Z,6.10
2023-03-25T06:36:19.246Z,7.50
2023-03-25T06:37:19.080Z,5.80
2023-03-25T06:38:19.054Z,4.50
2023-03-25T06:39:19.028Z,6.60
2023-03-25T06:40:19.027Z,5.40
2023-03-25T06:41:18.978Z,4.30
2023-03-25T06:42:18.971Z,4.90
2023-03-25T06:43:18.945Z,4.80
2023-03-25T06:44:24.102Z,7.90
2023-03-25T06:45:18.875Z,3.80
2023-03-25T06:46:18.908Z,5.10
2023-03-25T06:47:18.823Z,4.60
2023-03-25T06:48:18.797Z,3.80
2023-03-25T06:49:18.767Z,5.70
2023-03-25T06:50:18.769Z,3.50
2023-03-25T06:51:18.715Z,5.30
2023-03-25T06:52:18.692Z,5.80
2023-03-25T06:53:18.706Z,4.70
2023-03-25T06:54:18.648Z,5.70
2023-03-25T06:55:18.613Z,4.10
2023-03-25T06:56:18.729Z,4.30
2023-03-25T06:57:18.565Z,3.70
2023-03-25T06:58:18.532Z,3.10
2023-03-25T06:59:18.524Z,3.60
2023-03-25T07:00:18.481Z,7.20
2023-03-25T07:01:18.485Z,7.50
2023-03-25T07:02:18.426Z,4.50
2023-03-25T07:03:18.401Z,5.70
2023-03-25T07:04:19.711Z,3.70
2023-03-25T07:05:18.375Z,9.60
2023-03-25T07:06:18.352Z,6.90
2023-03-25T07:07:18.297Z,5.40
2023-03-25T07:08:18.274Z,7.30
2023-03-25T07:09:18.245Z,8.30
2023-03-25T07:10:18.222Z,4.60
2023-03-25T07:11:18.191Z,3.20
2023-03-25T07:12:18.171Z,3.80
2023-03-25T07:13:18.140Z,3.50
2023-03-25T07:14:18.117Z,9.20
2023-03-25T07:15:18.128Z,4.80
2023-03-25T07:16:18.076Z,7.40
2023-03-25T07:17:18.038Z,6.60
2023-03-25T07:18:18.013Z,4.80
2023-03-25T07:19:17.984Z,6.90
2023-03-25T07:20:17.961Z,3.30
2023-03-25T07:21:17.935Z,6.20
2023-03-25T07:22:17.911Z,7.20
2023-03-25T07:23:17.882Z,6.30
2023-03-25T07:24:17.931Z,5.50
2023-03-25T07:25:17.828Z,8.10
2023-03-25T07:26:17.804Z,6.30
2023-03-25T07:27:17.783Z,3.80
2023-03-25T07:28:17.753Z,6.90
2023-03-25T07:29:17.733Z,6.20
2023-03-25T07:30:17.701Z,6.20
2023-03-25T07:31:17.716Z,7.20
2023-03-25T07:32:17.652Z,6.80
2023-03-25T07:33:17.623Z,6.30
2023-03-25T07:34:17.608Z,5.90
2023-03-25T07:35:17.715Z,4.80
2023-03-25T07:36:17.548Z,3.70
2023-03-25T07:37:17.520Z,6.40
2023-03-25T07:38:17.493Z,7.00
2023-03-25T07:39:17.464Z,6.90
2023-03-25T07:40:17.448Z,5.10
2023-03-25T07:41:17.417Z,6.70
2023-03-25T07:42:17.391Z,4.20
2023-03-25T07:43:17.424Z,8.10
2023-03-25T07:44:18.342Z,6.40
2023-03-25T07:45:17.315Z,8.00
2023-03-25T07:46:17.309Z,8.60
2023-03-25T07:47:17.286Z,4.30
2023-03-25T07:48:17.239Z,7.60
2023-03-25T07:49:17.215Z,7.30
2023-03-25T07:50:17.188Z,8.70
2023-03-25T07:51:17.158Z,7.80
2023-03-25T07:52:17.129Z,10.20
2023-03-25T07:53:17.121Z,6.90
2023-03-25T07:54:17.085Z,7.40
2023-03-25T07:55:17.072Z,10.60
2023-03-25T07:56:17.026Z,9.70
2023-03-25T07:57:17.004Z,5.90
2023-03-25T07:58:16.977Z,10.00
2023-03-25T07:59:16.952Z,5.80
2023-03-25T08:00:16.926Z,9.30
2023-03-25T08:01:16.912Z,7.40
2023-03-25T08:02:16.926Z,5.90
2023-03-25T08:03:16.961Z,10.10
2023-03-25T08:04:16.821Z,7.90
2023-03-25T08:05:16.806Z,10.40
2023-03-25T08:06:16.771Z,10.40
2023-03-25T08:07:16.782Z,6.20
2023-03-25T08:08:16.725Z,8.80
2023-03-25T08:09:16.701Z,7.60
2023-03-25T08:10:16.665Z,11.90
2023-03-25T08:11:16.639Z,7.10
2023-03-25T08:12:16.616Z,7.90
2023-03-25T08:13:16.589Z,9.90
2023-03-25T08:14:16.573Z,9.30
2023-03-25T08:15:16.537Z,7.00
2023-03-25T08:16:16.542Z,5.20
2023-03-25T08:17:16.484Z,8.50
2023-03-25T08:18:16.455Z,14.20
2023-03-25T08:19:16.450Z,10.30
2023-03-25T08:20:16.409Z,6.50
2023-03-25T08:21:16.386Z,6.30
2023-03-25T08:22:16.354Z,7.20
2023-03-25T08:23:17.444Z,7.20
2023-03-25T08:24:16.303Z,10.00
2023-03-25T08:25:16.279Z,8.90
2023-03-25T08:26:16.248Z,9.30
2023-03-25T08:27:16.723Z,6.90
2023-03-25T08:28:16.196Z,4.80
2023-03-25T08:29:16.546Z,6.10
2023-03-25T08:30:16.147Z,7.00
2023-03-25T08:31:16.127Z,8.30
2023-03-25T08:32:16.092Z,12.00
2023-03-25T08:33:16.071Z,7.20
2023-03-25T08:34:16.042Z,7.80
2023-03-25T08:35:16.037Z,7.40
2023-03-25T08:36:16.089Z,9.60
2023-03-25T08:37:15.974Z,9.40
2023-03-25T08:38:15.947Z,6.20
2023-03-25T08:39:15.918Z,9.60
2023-03-25T08:40:15.894Z,7.70
2023-03-25T08:41:15.876Z,9.60
2023-03-25T08:42:15.838Z,8.30
2023-03-25T08:43:15.820Z,11.10
2023-03-25T08:44:15.796Z,11.60
2023-03-25T08:45:15.795Z,9.90
2023-03-25T08:46:15.762Z,9.90
2023-03-25T08:47:15.737Z,10.30
2023-03-25T08:48:15.688Z,7.30
2023-03-25T08:49:15.663Z,11.10
2023-03-25T08:50:15.642Z,10.00
2023-03-25T08:51:15.634Z,10.70
2023-03-25T08:52:15.585Z,8.10
2023-03-25T08:53:15.570Z,9.50
2023-03-25T08:54:15.535Z,7.10
2023-03-25T08:55:15.531Z,10.50
2023-03-25T08:56:15.489Z,10.80
2023-03-25T08:57:15.493Z,9.10
2023-03-25T08:58:15.432Z,8.60
2023-03-25T08:59:15.470Z,4.40
2023-03-25T09:00:15.387Z,7.10
2023-03-25T09:01:15.374Z,9.40
2023-03-25T09:02:15.356Z,9.70
2023-03-25T09:03:15.309Z,10.50
2023-03-25T09:04:15.279Z,13.00
2023-03-25T09:05:15.260Z,10.50
2023-03-25T09:06:15.236Z,11.30
2023-03-25T09:07:15.228Z,11.90
2023-03-25T09:08:15.187Z,10.10
2023-03-25T09:09:15.154Z,11.50
2023-03-25T09:10:15.137Z,8.30
2023-03-25T09:11:19.725Z,7.60
2023-03-25T09:12:15.078Z,11.30
2023-03-25T09:13:15.050Z,10.90
2023-03-25T09:14:15.027Z,8.50
2023-03-25T09:15:14.999Z,7.20
2023-03-25T09:16:14.996Z,8.40
2023-03-25T09:17:14.950Z,12.00
2023-03-25T09:18:14.924Z,7.90
2023-03-25T09:19:14.899Z,10.60
2023-03-25T09:20:14.874Z,12.30
2023-03-25T09:21:14.851Z,8.80
2023-03-25T09:22:14.821Z,7.50
2023-03-25T09:23:14.818Z,9.10
2023-03-25T09:24:14.781Z,8.50
2023-03-25T09:25:14.746Z,9.80
2023-03-25T09:26:14.723Z,8.80
2023-03-25T09:27:14.698Z,11.70
2023-03-25T09:28:14.671Z,8.80
2023-03-25T09:29:14.645Z,9.30
2023-03-25T09:30:14.615Z,9.60
2023-03-25T09:31:14.623Z,11.80
2023-03-25T09:32:14.561Z,11.10
2023-03-25T09:33:14.540Z,8.40
2023-03-25T09:34:16.073Z,10.20
2023-03-25T09:35:14.486Z,14.60
2023-03-25T09:36:14.457Z,12.80
2023-03-25T09:37:14.436Z,8.80
2023-03-25T09:38:14.407Z,8.50
2023-03-25T09:39:14.398Z,10.70
2023-03-25T09:40:14.355Z,9.90
2023-03-25T09:41:15.362Z,8.90
2023-03-25T09:42:14.310Z,10.30
2023-03-25T09:43:14.284Z,10.30
2023-03-25T09:44:14.251Z,9.60
2023-03-25T09:45:14.233Z,10.60
2023-03-25T09:46:14.240Z,8.80
2023-03-25T09:47:15.033Z,9.20
2023-03-25T09:48:14.151Z,10.80
2023-03-25T09:49:14.125Z,9.90
2023-03-25T09:50:14.099Z,7.10
2023-03-25T09:51:14.091Z,8.50
2023-03-25T09:52:14.043Z,12.10
2023-03-25T09:53:14.032Z,11.50
2023-03-25T09:54:14.014Z,12.10
2023-03-25T09:55:13.999Z,11.70
2023-03-25T09:56:13.945Z,10.10
2023-03-25T09:57:13.981Z,9.10
2023-03-25T09:58:13.894Z,14.30
2023-03-25T09:59:13.871Z,12.70
2023-03-25T10:00:13.863Z,10.90
2023-03-25T10:01:13.928Z,12.60
2023-03-25T10:02:13.869Z,9.10
2023-03-25T10:03:13.833Z,9.60
2023-03-25T10:04:13.743Z,10.80
2023-03-25T10:05:13.718Z,9.00
2023-03-25T10:06:13.698Z,8.90
2023-03-25T10:07:13.684Z,7.10
2023-03-25T10:08:13.644Z,8.20
2023-03-25T10:09:13.627Z,10.50
2023-03-25T10:10:13.590Z,10.50
2023-03-25T10:11:13.587Z,8.80
2023-03-25T10:12:13.558Z,8.40
2023-03-25T10:13:13.523Z,11.40
2023-03-25T10:14:13.497Z,12.90
2023-03-25T10:15:13.468Z,9.10
2023-03-25T10:16:13.449Z,8.80
2023-03-25T10:17:13.418Z,9.70
2023-03-25T10:18:13.388Z,7.20
2023-03-25T10:19:13.367Z,10.70
2023-03-25T10:20:13.344Z,12.90
2023-03-25T10:21:13.313Z,12.50
2023-03-25T10:22:13.289Z,8.70
2023-03-25T10:23:13.264Z,11.50
2023-03-25T10:24:13.235Z,9.60
2023-03-25T10:25:13.213Z,13.50
2023-03-25T10:26:13.186Z,16.80
2023-03-25T10:27:13.200Z,12.60
2023-03-25T10:28:13.132Z,16.20
2023-03-25T10:29:13.110Z,9.80
2023-03-25T10:30:13.096Z,13.10
2023-03-25T10:31:13.112Z,14.10
2023-03-25T10:32:13.033Z,16.00
2023-03-25T10:33:13.038Z,17.10
2023-03-25T10:34:12.980Z,13.40
2023-03-25T10:35:12.958Z,12.70
2023-03-25T10:36:12.942Z,14.10
2023-03-25T10:37:13.014Z,13.10
2023-03-25T10:38:14.384Z,18.70
2023-03-25T10:39:12.870Z,15.10
2023-03-25T10:40:13.262Z,10.30
2023-03-25T10:41:12.819Z,15.60
2023-03-25T10:42:12.778Z,9.20
2023-03-25T10:43:12.773Z,9.00
2023-03-25T10:44:12.725Z,10.70
2023-03-25T10:45:12.702Z,9.30
2023-03-25T10:46:12.743Z,9.60
2023-03-25T10:47:12.655Z,10.30
2023-03-25T10:48:12.642Z,8.40
2023-03-25T10:49:12.606Z,8.50
2023-03-25T10:50:12.578Z,8.60
2023-03-25T10:51:12.558Z,5.80
2023-03-25T10:52:12.528Z,7.80
2023-03-25T10:53:12.510Z,7.50
2023-03-25T10:54:12.478Z,6.10
2023-03-25T10:55:12.452Z,8.90
2023-03-25T10:56:12.428Z,7.70
2023-03-25T10:57:12.441Z,8.30
2023-03-25T10:58:12.373Z,8.70
2023-03-25T10:59:12.377Z,6.90
2023-03-25T11:00:12.326Z,5.90
2023-03-25T11:01:12.357Z,7.80
2023-03-25T11:02:12.381Z,8.20
2023-03-25T11:03:12.416Z,9.00
2023-03-25T11:04:12.325Z,13.90
2023-03-25T11:05:12.277Z,8.40
2023-03-25T11:06:12.174Z,9.20
2023-03-25T11:07:12.149Z,8.60
2023-03-25T11:08:23.622Z,8.90
2023-03-25T11:09:12.100Z,7.40
2023-03-25T11:10:12.071Z,8.90
2023-03-25T11:11:12.050Z,11.90
2023-03-25T11:12:12.019Z,7.10
2023-03-25T11:13:12.002Z,12.20
2023-03-25T11:14:11.994Z,8.70
2023-03-25T11:15:11.963Z,8.60
2023-03-25T11:16:11.947Z,9.20
2023-03-25T11:17:11.898Z,9.90
2023-03-25T11:18:11.889Z,13.70
2023-03-25T11:19:11.845Z,7.50
2023-03-25T11:20:11.824Z,10.80
2023-03-25T11:21:11.804Z,12.30
2023-03-25T11:22:11.791Z,7.90
2023-03-25T11:23:11.744Z,5.90
2023-03-25T11:24:11.717Z,9.10
2023-03-25T11:25:11.698Z,13.70
2023-03-25T11:26:11.669Z,9.40
2023-03-25T11:27:11.647Z,10.30
2023-03-25T11:28:11.620Z,11.00
2023-03-25T11:29:11.595Z,11.40
2023-03-25T11:30:11.574Z,15.10
2023-03-25T11:31:11.650Z,11.00
2023-03-25T11:32:11.523Z,11.40
2023-03-25T11:33:12.029Z,11.00
2023-03-25T11:34:11.497Z,6.40
2023-03-25T11:35:11.450Z,8.10
2023-03-25T11:36:11.418Z,7.30
2023-03-25T11:37:11.395Z,5.20
2023-03-25T11:38:11.370Z,7.20
2023-03-25T11:39:11.482Z,11.80
2023-03-25T11:40:11.318Z,6.70
2023-03-25T11:41:11.295Z,6.60
2023-03-25T11:42:11.271Z,7.60
2023-03-25T11:43:11.280Z,9.40
2023-03-25T11:44:11.218Z,10.30
2023-03-25T11:45:11.198Z,10.00
2023-03-25T11:46:11.218Z,8.10
2023-03-25T11:47:11.177Z,9.50
2023-03-25T11:48:11.156Z,8.30
2023-03-25T11:49:11.103Z,8.90
2023-03-25T11:50:11.084Z,10.20
2023-03-25T11:51:11.043Z,9.20
2023-03-25T11:52:11.017Z,7.30
2023-03-25T11:53:10.991Z,10.60
2023-03-25T11:54:10.966Z,5.70
2023-03-25T11:55:10.940Z,11.20
2023-03-25T11:56:10.917Z,11.30
2023-03-25T11:57:10.944Z,7.00
2023-03-25T11:58:10.870Z,12.20
2023-03-25T11:59:10.843Z,7.50
2023-03-25T12:00:10.816Z,12.30
2023-03-25T12:01:10.790Z,8.90
2023-03-25T12:02:10.764Z,10.30
2023-03-25T12:03:10.940Z,6.10
2023-03-25T12:04:10.722Z,8.20
2023-03-25T12:05:10.691Z,9.20
2023-03-25T12:06:10.675Z,11.10
2023-03-25T12:07:10.648Z,6.80
2023-03-25T12:08:10.636Z,8.80
2023-03-25T12:09:10.588Z,10.20
2023-03-25T12:10:10.567Z,9.40
2023-03-25T12:11:10.541Z,9.90
2023-03-25T12:12:10.523Z,12.60
2023-03-25T12:13:10.487Z,11.10
2023-03-25T12:14:10.465Z,13.40
2023-03-25T12:15:10.449Z,7.90
2023-03-25T12:16:10.489Z,7.70
2023-03-25T12:17:10.392Z,6.60
2023-03-25T12:18:10.371Z,11.20
2023-03-25T12:19:10.377Z,9.70
2023-03-25T12:20:10.319Z,11.60
2023-03-25T12:21:10.294Z,10.90
2023-03-25T12:22:10.266Z,8.20
2023-03-25T12:23:10.256Z,11.40
2023-03-25T12:24:10.232Z,12.20
2023-03-25T12:25:10.206Z,12.40
2023-03-25T12:26:10.164Z,15.70
2023-03-25T12:27:10.146Z,15.80
2023-03-25T12:28:10.116Z,11.60
2023-03-25T12:29:10.094Z,11.90
2023-03-25T12:30:10.063Z,8.80
2023-03-25T12:31:10.061Z,11.80
2023-03-25T12:32:10.012Z,14.00
2023-03-25T12:33:10.037Z,9.80
2023-03-25T12:34:09.969Z,9.40
2023-03-25T12:35:09.960Z,12.50
2023-03-25T12:36:09.918Z,12.20
2023-03-25T12:37:09.888Z,7.80
2023-03-25T12:38:09.871Z,9.80
2023-03-25T12:39:09.849Z,10.10
2023-03-25T12:40:09.832Z,10.80
2023-03-25T12:41:09.784Z,13.10
2023-03-25T12:42:09.760Z,12.20
2023-03-25T12:43:09.733Z,8.20
2023-03-25T12:44:09.752Z,10.40
2023-03-25T12:45:09.684Z,11.60
2023-03-25T12:46:09.684Z,10.40
2023-03-25T12:47:09.629Z,9.50
2023-03-25T12:48:09.621Z,18.10
2023-03-25T12:49:09.578Z,13.30
2023-03-25T12:50:09.564Z,9.70
2023-03-25T12:51:09.548Z,16.60
2023-03-25T12:52:09.508Z,10.00
2023-03-25T12:53:09.480Z,7.20
2023-03-25T12:54:09.472Z,10.30
2023-03-25T12:55:09.465Z,15.90
2023-03-25T12:56:11.214Z,12.70
2023-03-25T12:57:09.463Z,10.30
2023-03-25T12:58:09.359Z,11.60
2023-03-25T12:59:09.323Z,13.90
2023-03-25T13:00:09.303Z,8.10
2023-03-25T13:01:09.309Z,15.80
2023-03-25T13:02:09.282Z,14.20
2023-03-25T13:03:09.255Z,12.50
2023-03-25T13:04:09.209Z,12.00
2023-03-25T13:05:09.184Z,19.70
2023-03-25T13:06:09.148Z,16.60
2023-03-25T13:07:09.148Z,16.00
2023-03-25T13:08:09.105Z,13.30
2023-03-25T13:09:09.070Z,11.60
2023-03-25T13:10:09.115Z,9.10
2023-03-25T13:11:09.024Z,11.50
2023-03-25T13:12:08.993Z,6.60
2023-03-25T13:13:09.066Z,12.00